createdAt,value
2023-01-27T00:00:39.144Z,11.88
2023-01-27T00:03:06.481Z,6.05
2023-01-27T00:05:33.682Z,6.38
2023-01-27T00:08:00.754Z,7.95
2023-01-27T00:10:27.642Z,11.20
2023-01-27T00:13:12.903Z,7.13
2023-01-27T00:15:40.190Z,12.77
2023-01-27T00:18:08.337Z,9.87
2023-01-27T00:20:53.557Z,9.50
2023-01-27T00:23:42.465Z,11.95
2023-01-27T00:26:11.918Z,10.95
2023-01-27T00:28:42.091Z,11.27
2023-01-27T00:31:29.624Z,8.13
2023-01-27T00:34:02.005Z,9.23
2023-01-27T00:36:29.840Z,11.20
2023-01-27T00:38:57.208Z,7.90
2023-01-27T00:41:24.369Z,10.38
2023-01-27T00:43:53.222Z,8.63
2023-01-27T00:46:22.645Z,10.80
2023-01-27T00:48:50.346Z,7.03
2023-01-27T00:51:17.617Z,8.57
2023-01-27T00:53:45.185Z,6.07
2023-01-27T00:56:12.468Z,6.25
2023-01-27T00:58:39.470Z,9.25
2023-01-27T01:01:08.605Z,9.07
2023-01-27T01:03:36.862Z,10.25
2023-01-27T01:06:14.699Z,13.45
2023-01-27T01:08:42.147Z,7.85
2023-01-27T01:11:13.210Z,11.35
2023-01-27T01:13:41.209Z,9.52
2023-01-27T01:16:13.255Z,14.60
2023-01-27T01:18:41.134Z,3.97
2023-01-27T01:21:08.048Z,7.53
2023-01-27T01:23:40.773Z,7.10
2023-01-27T01:26:14.373Z,4.07
2023-01-27T01:28:41.556Z,11.10
2023-01-27T01:31:10.935Z,12.57
2023-01-27T01:33:38.831Z,9.43
2023-01-27T01:36:11.209Z,10.73
2023-01-27T01:38:38.149Z,15.88
2023-01-27T01:41:07.195Z,8.95
2023-01-27T01:43:35.184Z,11.50
2023-01-27T01:46:02.906Z,9.25
2023-01-27T01:48:37.556Z,15.82
2023-01-27T01:51:10.820Z,8.40
2023-01-27T01:53:45.376Z,10.37
2023-01-27T01:56:19.880Z,14.32
2023-01-27T01:58:48.466Z,14.32
2023-01-27T02:01:17.481Z,11.77
2023-01-27T02:03:50.980Z,7.80
2023-01-27T02:06:18.063Z,9.55
2023-01-27T02:08:48.706Z,11.52
2023-01-27T02:11:15.559Z,14.32
2023-01-27T02:13:43.108Z,12.10
2023-01-27T02:16:12.072Z,9.45
2023-01-27T02:18:40.932Z,7.90
2023-01-27T02:21:08.166Z,4.70
2023-01-27T02:24:10.774Z,12.00
2023-01-27T02:26:41.291Z,7.15
2023-01-27T02:29:11.423Z,8.68
2023-01-27T02:31:39.009Z,4.15
2023-01-27T02:34:17.747Z,5.78
2023-01-27T02:37:00.791Z,8.88
2023-01-27T02:39:34.151Z,7.30
2023-01-27T02:42:04.288Z,5.88
2023-01-27T02:44:32.157Z,6.80
2023-01-27T02:46:58.956Z,6.57
2023-01-27T02:49:26.459Z,8.77
2023-01-27T02:51:53.234Z,9.93
2023-01-27T02:54:20.158Z,10.38
2023-01-27T02:56:46.931Z,11.23
2023-01-27T02:59:16.085Z,13.52
2023-01-27T03:01:42.953Z,13.35
2023-01-27T03:04:11.813Z,13.38
2023-01-27T03:06:38.924Z,14.23
2023-01-27T03:09:05.797Z,13.60
2023-01-27T03:11:51.130Z,12.23
2023-01-27T03:14:18.648Z,10.45
2023-01-27T03:17:06.165Z,16.42
2023-01-27T03:19:33.032Z,11.50
2023-01-27T03:22:01.879Z,13.55
2023-01-27T03:24:30.488Z,12.40
2023-01-27T03:27:00.750Z,16.30
2023-01-27T03:29:56.408Z,12.32
2023-01-27T03:32:28.280Z,12.73
2023-01-27T03:35:16.347Z,11.90
2023-01-27T03:38:04.360Z,15.27
2023-01-27T03:40:49.888Z,13.97
2023-01-27T03:43:35.306Z,11.63
2023-01-27T03:46:20.500Z,14.38
2023-01-27T03:48:55.890Z,10.23
2023-01-27T03:51:24.812Z,15.03
2023-01-27T03:53:51.599Z,9.18
2023-01-27T03:56:19.949Z,9.60
2023-01-27T03:58:49.322Z,13.55
2023-01-27T04:01:18.004Z,16.02
2023-01-27T04:04:04.066Z,17.88
2023-01-27T04:06:51.800Z,13.65
2023-01-27T04:09:34.046Z,10.43
2023-01-27T04:12:04.446Z,15.02
2023-01-27T04:14:39.264Z,14.15
2023-01-27T04:17:10.937Z,13.30
2023-01-27T04:19:38.212Z,14.63
2023-01-27T04:22:05.938Z,12.77
2023-01-27T04:24:33.334Z,11.70
2023-01-27T04:27:03.389Z,8.13
2023-01-27T04:29:32.684Z,6.65
2023-01-27T04:31:59.461Z,9.52
2023-01-27T04:34:27.534Z,8.83
2023-01-27T04:36:55.163Z,5.55
2023-01-27T04:39:22.756Z,9.07
2023-01-27T04:41:49.789Z,6.57
2023-01-27T04:44:16.632Z,7.13
2023-01-27T04:46:43.441Z,7.68
2023-01-27T04:49:11.139Z,7.45
2023-01-27T04:51:37.955Z,8.35
2023-01-27T04:54:05.543Z,6.63
2023-01-27T04:56:53.509Z,5.68
2023-01-27T04:59:20.327Z,4.20
2023-01-27T05:01:47.037Z,5.03
2023-01-27T05:04:13.763Z,5.13
2023-01-27T05:06:40.513Z,5.63
2023-01-27T05:09:07.290Z,9.45
2023-01-27T05:11:34.052Z,6.05
2023-01-27T05:14:00.762Z,4.70
2023-01-27T05:16:27.697Z,3.63
2023-01-27T05:18:54.623Z,4.15
2023-01-27T05:21:23.985Z,4.63
2023-01-27T05:23:51.064Z,3.73
2023-01-27T05:26:21.418Z,3.20
2023-01-27T05:28:49.405Z,3.60
2023-01-27T05:31:25.103Z,3.30
2023-01-27T05:33:53.777Z,3.38
2023-01-27T05:36:23.084Z,3.17
2023-01-27T05:38:50.329Z,3.60
2023-01-27T05:41:18.762Z,4.47
2023-01-27T05:43:47.323Z,4.35
2023-01-27T05:46:16.574Z,3.13
2023-01-27T05:48:49.338Z,3.45
2023-01-27T05:51:18.318Z,2.40
2023-01-27T05:53:45.534Z,3.40
2023-01-27T05:56:14.868Z,3.38
2023-01-27T05:58:41.922Z,4.88
2023-01-27T06:01:17.406Z,3.20
2023-01-27T06:03:44.969Z,3.53
2023-01-27T06:06:13.597Z,3.53
2023-01-27T06:08:40.890Z,3.80
2023-01-27T06:11:08.325Z,4.25
2023-01-27T06:13:35.997Z,3.40
2023-01-27T06:16:05.354Z,4.82
2023-01-27T06:18:32.506Z,3.55
2023-01-27T06:21:03.659Z,3.42
2023-01-27T06:23:30.555Z,4.03
2023-01-27T06:26:02.481Z,2.92
2023-01-27T06:28:30.083Z,3.67
2023-01-27T06:31:08.426Z,4.45
2023-01-27T06:33:35.804Z,3.22
2023-01-27T06:36:05.164Z,3.15
2023-01-27T06:38:32.085Z,3.13
2023-01-27T06:41:00.179Z,3.42
2023-01-27T06:43:27.522Z,3.13
2023-01-27T06:45:54.381Z,2.78
2023-01-27T06:48:21.202Z,3.20
2023-01-27T06:50:47.945Z,2.90
2023-01-27T06:53:14.699Z,3.30
2023-01-27T06:55:41.607Z,4.57
2023-01-27T06:58:09.319Z,2.85
2023-01-27T07:00:37.042Z,3.92
2023-01-27T07:03:04.359Z,2.70
2023-01-27T07:05:31.876Z,4.43
2023-01-27T07:07:59.087Z,2.40
2023-01-27T07:10:26.279Z,1.50
2023-01-27T07:12:53.057Z,3.45
2023-01-27T07:15:20.051Z,2.95
2023-01-27T07:17:46.835Z,2.38
2023-01-27T07:20:14.134Z,3.45
2023-01-27T07:22:41.151Z,2.83
2023-01-27T07:25:08.267Z,2.47
2023-01-27T07:27:35.080Z,2.67
2023-01-27T07:30:01.835Z,2.50
2023-01-27T07:32:28.739Z,2.85
2023-01-27T07:34:55.559Z,2.40
2023-01-27T07:37:22.347Z,2.10
2023-01-27T07:39:49.087Z,2.53
2023-01-27T07:42:15.786Z,2.97
2023-01-27T07:44:42.586Z,2.00
2023-01-27T07:47:09.353Z,6.35
2023-01-27T07:49:36.107Z,3.15
2023-01-27T07:52:03.007Z,2.53
2023-01-27T07:54:29.856Z,3.00
2023-01-27T07:56:58.992Z,3.30
2023-01-27T07:59:25.780Z,2.63
2023-01-27T08:01:52.534Z,2.50
2023-01-27T08:04:19.666Z,2.72
2023-01-27T08:06:46.417Z,6.15
2023-01-27T08:09:13.255Z,2.70
2023-01-27T08:11:39.967Z,2.60
2023-01-27T08:14:06.708Z,2.15
2023-01-27T08:16:33.453Z,2.58
2023-01-27T08:19:00.203Z,2.90
2023-01-27T08:21:32.703Z,2.40
2023-01-27T08:24:00.458Z,2.08
2023-01-27T08:26:27.813Z,4.70
2023-01-27T08:28:54.547Z,2.20
2023-01-27T08:31:21.473Z,3.90
2023-01-27T08:33:52.629Z,3.47
2023-01-27T08:36:20.750Z,3.57
2023-01-27T08:38:49.521Z,2.55
2023-01-27T08:41:23.172Z,2.30
2023-01-27T08:43:50.414Z,2.77
2023-01-27T08:46:17.680Z,2.97
2023-01-27T08:48:44.609Z,2.80
2023-01-27T08:51:13.758Z,1.95
2023-01-27T08:53:41.005Z,2.10
2023-01-27T08:56:15.395Z,3.38
2023-01-27T08:58:42.806Z,4.03
2023-01-27T09:01:09.904Z,2.80
2023-01-27T09:03:37.179Z,4.97
2023-01-27T09:06:08.711Z,2.53
2023-01-27T09:08:35.868Z,1.52
2023-01-27T09:11:12.325Z,4.72
2023-01-27T09:13:39.193Z,2.80
2023-01-27T09:16:06.545Z,2.85
2023-01-27T09:18:33.819Z,1.25
2023-01-27T09:21:05.331Z,3.83
2023-01-27T09:23:33.524Z,2.47
2023-01-27T09:26:01.725Z,2.70
2023-01-27T09:28:28.565Z,1.60
2023-01-27T09:30:59.489Z,3.13
2023-01-27T09:33:27.053Z,3.20
2023-01-27T09:36:00.946Z,2.55
2023-01-27T09:38:31.769Z,2.35
2023-01-27T09:41:24.290Z,1.63
2023-01-27T09:43:56.590Z,3.15
2023-01-27T09:46:37.134Z,1.80
2023-01-27T09:49:24.003Z,4.57
2023-01-27T09:52:09.616Z,6.47
2023-01-27T09:54:45.924Z,2.00
2023-01-27T09:57:33.197Z,2.28
2023-01-27T09:59:59.876Z,4.13
2023-01-27T10:02:59.082Z,2.50
2023-01-27T10:05:50.728Z,1.75
2023-01-27T10:09:07.038Z,2.95
2023-01-27T10:11:50.103Z,1.00
2023-01-27T10:15:04.981Z,1.30
2023-01-27T10:18:03.158Z,1.42
2023-01-27T10:20:41.677Z,1.70
2023-01-27T10:23:40.540Z,1.43
2023-01-27T10:26:25.379Z,3.25
2023-01-27T10:29:01.161Z,2.17
2023-01-27T10:31:36.998Z,2.55
2023-01-27T10:34:45.002Z,2.50
2023-01-27T10:37:23.673Z,4.15
2023-01-27T10:40:18.479Z,3.72
2023-01-27T10:43:12.869Z,0.47
2023-01-27T10:46:14.011Z,2.80
2023-01-27T10:48:59.592Z,2.92
2023-01-27T10:51:32.665Z,3.05
2023-01-27T10:54:35.911Z,2.70
2023-01-27T10:57:12.938Z,3.10
2023-01-27T11:00:21.909Z,3.00
2023-01-27T11:03:26.074Z,2.97
2023-01-27T11:06:06.673Z,1.77
2023-01-27T11:08:36.665Z,2.63
2023-01-27T11:11:25.454Z,2.92
2023-01-27T11:14:02.667Z,4.20
2023-01-27T11:16:35.557Z,3.50
2023-01-27T11:19:24.646Z,2.75
2023-01-27T11:22:06.790Z,2.83
2023-01-27T11:24:53.471Z,3.65
2023-01-27T11:27:32.163Z,2.40
2023-01-27T11:30:29.298Z,2.40
2023-01-27T11:33:04.939Z,2.28
2023-01-27T11:35:31.803Z,2.60
2023-01-27T11:38:14.440Z,3.22
2023-01-27T11:40:44.500Z,2.70
2023-01-27T11:43:17.272Z,2.13
2023-01-27T11:45:46.357Z,4.95
2023-01-27T11:48:16.827Z,2.53
2023-01-27T11:50:44.989Z,3.15
2023-01-27T11:53:24.328Z,2.47
2023-01-27T11:56:15.782Z,2.72
2023-01-27T11:59:05.522Z,2.50
2023-01-27T12:01:59.382Z,2.75
2023-01-27T12:04:38.192Z,2.13
2023-01-27T12:07:15.546Z,2.58
2023-01-27T12:09:42.791Z,2.85
2023-01-27T12:12:09.473Z,1.33
2023-01-27T12:14:36.265Z,1.83
2023-01-27T12:17:05.395Z,3.03
2023-01-27T12:19:40.176Z,2.83
2023-01-27T12:22:28.878Z,3.10
2023-01-27T12:25:02.605Z,3.55
2023-01-27T12:27:35.663Z,2.97
2023-01-27T12:30:06.343Z,3.05
2023-01-27T12:32:45.443Z,3.67
2023-01-27T12:35:40.205Z,3.92
2023-01-27T12:38:17.709Z,3.25
2023-01-27T12:40:47.369Z,3.22
2023-01-27T12:43:16.704Z,6.82
2023-01-27T12:45:44.633Z,2.80
2023-01-27T12:48:14.128Z,2.97
2023-01-27T12:50:43.107Z,3.88
2023-01-27T12:53:18.554Z,2.80
2023-01-27T12:56:12.100Z,3.08
2023-01-27T12:58:54.149Z,3.35
2023-01-27T13:01:23.748Z,2.38
2023-01-27T13:04:13.062Z,2.40
2023-01-27T13:06:43.480Z,2.10
2023-01-27T13:09:35.133Z,2.75
2023-01-27T13:12:23.440Z,2.25
2023-01-27T13:14:55.534Z,2.92
2023-01-27T13:17:45.593Z,2.33
2023-01-27T13:20:24.846Z,3.08
2023-01-27T13:22:54.582Z,2.70
2023-01-27T13:25:28.164Z,2.20
2023-01-27T13:27:59.719Z,2.03
2023-01-27T13:30:36.662Z,2.88
2023-01-27T13:33:22.397Z,2.20
2023-01-27T13:36:00.649Z,2.85
2023-01-27T13:38:45.087Z,4.60
2023-01-27T13:41:20.896Z,2.60
2023-01-27T13:44:01.830Z,4.15
2023-01-27T13:46:33.623Z,2.97
2023-01-27T13:49:12.423Z,1.58
2023-01-27T13:51:42.649Z,2.60
2023-01-27T13:54:15.550Z,4.47
2023-01-27T13:56:45.040Z,2.93
2023-01-27T13:59:49.426Z,2.45
2023-01-27T14:02:22.410Z,3.35
2023-01-27T14:05:14.984Z,3.03
2023-01-27T14:07:52.615Z,5.33
2023-01-27T14:10:29.541Z,3.80
2023-01-27T14:13:17.766Z,2.17
2023-01-27T14:16:12.366Z,3.90
2023-01-27T14:18:50.655Z,1.90
2023-01-27T14:21:47.616Z,2.45
2023-01-27T14:24:37.936Z,2.65
2023-01-27T14:27:39.994Z,2.80
2023-01-27T14:30:28.096Z,2.40
2023-01-27T14:33:06.855Z,3.08
2023-01-27T14:35:36.743Z,2.07
2023-01-27T14:38:45.746Z,2.22
2023-01-27T14:41:36.012Z,2.40
2023-01-27T14:44:44.337Z,2.50
2023-01-27T14:47:50.314Z,2.60
2023-01-27T14:50:45.107Z,0.80
2023-01-27T14:53:42.884Z,1.70
2023-01-27T14:56:38.462Z,1.90
2023-01-27T14:59:42.353Z,2.50
2023-01-27T15:02:12.271Z,2.65
2023-01-27T15:05:09.089Z,2.30
2023-01-27T15:08:08.164Z,2.30
2023-01-27T15:10:42.086Z,3.92
2023-01-27T15:13:32.218Z,2.10
2023-01-27T15:16:22.094Z,2.50
2023-01-27T15:19:21.547Z,2.70
2023-01-27T15:22:27.163Z,2.55
2023-01-27T15:24:59.666Z,2.60
2023-01-27T15:27:27.689Z,2.88
2023-01-27T15:29:54.565Z,2.88
2023-01-27T15:32:22.265Z,2.28
2023-01-27T15:35:13.679Z,2.30
2023-01-27T15:38:17.122Z,2.40
2023-01-27T15:41:08.692Z,2.85
2023-01-27T15:43:41.813Z,3.08
2023-01-27T15:46:25.347Z,2.80
2023-01-27T15:48:52.203Z,2.90
2023-01-27T15:51:21.237Z,2.42
2023-01-27T15:53:57.255Z,2.80
2023-01-27T15:56:42.027Z,2.93
2023-01-27T15:59:15.863Z,3.30
2023-01-27T16:01:43.018Z,2.53
2023-01-27T16:04:23.373Z,3.08
2023-01-27T16:07:02.309Z,3.08
2023-01-27T16:09:44.575Z,2.00
2023-01-27T16:12:23.700Z,2.20
2023-01-27T16:15:20.827Z,3.17
2023-01-27T16:18:08.754Z,3.15
2023-01-27T16:21:03.576Z,3.25
2023-01-27T16:23:43.183Z,3.03
2023-01-27T16:26:23.711Z,2.22
2023-01-27T16:28:56.557Z,2.60
2023-01-27T16:31:28.190Z,3.70
2023-01-27T16:34:03.168Z,2.70
2023-01-27T16:36:33.030Z,2.28
2023-01-27T16:39:06.283Z,2.63
2023-01-27T16:41:39.245Z,2.20
2023-01-27T16:44:24.444Z,3.35
2023-01-27T16:46:56.758Z,3.10
2023-01-27T16:49:27.908Z,2.70
2023-01-27T16:52:00.610Z,3.25
2023-01-27T16:54:42.454Z,3.53
2023-01-27T16:57:25.335Z,3.72
2023-01-27T16:59:52.786Z,4.60
2023-01-27T17:02:23.653Z,4.25
2023-01-27T17:04:56.252Z,4.53
2023-01-27T17:07:23.323Z,3.88
2023-01-27T17:09:59.030Z,4.60
2023-01-27T17:12:30.040Z,4.07
2023-01-27T17:14:58.891Z,4.03
2023-01-27T17:17:27.766Z,3.17
2023-01-27T17:20:01.800Z,4.72
2023-01-27T17:22:42.099Z,3.50
2023-01-27T17:25:22.609Z,3.60
2023-01-27T17:27:49.633Z,3.95
2023-01-27T17:30:23.991Z,3.28
2023-01-27T17:32:56.656Z,3.50
2023-01-27T17:35:26.463Z,3.90
2023-01-27T17:38:07.670Z,3.30
2023-01-27T17:40:39.107Z,3.53
2023-01-27T17:43:25.497Z,3.70
2023-01-27T17:46:10.977Z,4.38
2023-01-27T17:49:03.069Z,3.33
2023-01-27T17:51:40.174Z,3.83
2023-01-27T17:54:33.187Z,3.80
2023-01-27T17:57:27.167Z,2.50
2023-01-27T18:00:01.807Z,2.30
2023-01-27T18:02:35.114Z,3.42
2023-01-27T18:05:06.705Z,3.75
2023-01-27T18:07:33.712Z,3.80
2023-01-27T18:10:00.471Z,3.80
2023-01-27T18:12:37.600Z,4.00
2023-01-27T18:15:32.271Z,3.60
2023-01-27T18:18:00.364Z,3.05
2023-01-27T18:20:30.081Z,3.38
2023-01-27T18:22:57.399Z,3.55
2023-01-27T18:25:24.492Z,3.40
2023-01-27T18:27:53.510Z,3.50
2023-01-27T18:30:21.461Z,3.50
2023-01-27T18:32:59.470Z,3.50
2023-01-27T18:35:27.880Z,3.73
2023-01-27T18:37:56.902Z,3.92
2023-01-27T18:40:30.107Z,3.60
2023-01-27T18:42:57.858Z,3.65
2023-01-27T18:45:25.987Z,3.67
2023-01-27T18:47:53.258Z,4.07
2023-01-27T18:50:22.338Z,3.72
2023-01-27T18:52:50.414Z,3.92
2023-01-27T18:55:23.029Z,3.92
2023-01-27T18:57:52.969Z,4.00
2023-01-27T19:00:25.566Z,4.10
2023-01-27T19:02:56.359Z,3.70
2023-01-27T19:05:29.216Z,4.17
2023-01-27T19:07:56.197Z,4.32
2023-01-27T19:10:34.423Z,4.15
2023-01-27T19:13:02.934Z,4.10
2023-01-27T19:15:33.198Z,4.00
2023-01-27T19:18:03.017Z,3.40
2023-01-27T19:20:31.048Z,3.72
2023-01-27T19:22:59.019Z,1.77
2023-01-27T19:25:29.454Z,3.50
2023-01-27T19:28:01.961Z,2.38
2023-01-27T19:30:37.419Z,2.72
2023-01-27T19:33:12.405Z,3.60
2023-01-27T19:35:40.299Z,2.27
2023-01-27T19:38:12.322Z,3.90
2023-01-27T19:40:39.563Z,4.25
2023-01-27T19:43:06.305Z,4.20
2023-01-27T19:45:33.261Z,4.20
2023-01-27T19:48:01.034Z,3.60
2023-01-27T19:50:30.143Z,4.28
2023-01-27T19:52:58.107Z,4.45
2023-01-27T19:55:25.736Z,4.97
2023-01-27T19:57:52.898Z,4.45
2023-01-27T20:00:24.357Z,4.78
2023-01-27T20:02:51.415Z,4.50
2023-01-27T20:05:18.511Z,4.47
2023-01-27T20:07:45.505Z,4.32
2023-01-27T20:10:18.487Z,4.65
2023-01-27T20:12:52.920Z,4.80
2023-01-27T20:15:20.151Z,5.10
2023-01-27T20:17:46.896Z,5.13
2023-01-27T20:20:14.091Z,5.25
2023-01-27T20:22:40.988Z,4.40
2023-01-27T20:25:12.481Z,5.07
2023-01-27T20:27:39.504Z,4.40
2023-01-27T20:30:06.738Z,5.50
2023-01-27T20:32:33.472Z,5.70
2023-01-27T20:35:00.363Z,5.20
2023-01-27T20:37:27.132Z,5.10
2023-01-27T20:39:53.973Z,5.28
2023-01-27T20:42:20.824Z,5.10
2023-01-27T20:44:47.682Z,5.55
2023-01-27T20:47:15.314Z,5.35
2023-01-27T20:49:43.244Z,5.47
2023-01-27T20:52:10.327Z,4.78
2023-01-27T20:54:37.125Z,4.90
2023-01-27T20:57:03.951Z,5.50
2023-01-27T20:59:30.739Z,5.55
2023-01-27T21:01:57.517Z,5.50
2023-01-27T21:04:24.297Z,5.93
2023-01-27T21:06:51.045Z,5.15
2023-01-27T21:09:17.829Z,4.43
2023-01-27T21:11:44.628Z,5.68
2023-01-27T21:14:11.416Z,5.68
2023-01-27T21:16:38.175Z,5.50
2023-01-27T21:19:04.931Z,6.00
2023-01-27T21:21:31.770Z,5.78
2023-01-27T21:24:01.655Z,5.47
2023-01-27T21:26:28.452Z,6.28
2023-01-27T21:28:56.360Z,5.88
2023-01-27T21:31:24.402Z,5.32
2023-01-27T21:33:51.332Z,6.63
2023-01-27T21:36:18.970Z,6.25
2023-01-27T21:38:45.835Z,4.87
2023-01-27T21:41:39.687Z,6.15
2023-01-27T21:44:34.485Z,7.13
2023-01-27T21:47:01.280Z,7.30
2023-01-27T21:49:28.144Z,6.63
2023-01-27T21:51:55.230Z,6.13
2023-01-27T21:54:22.107Z,6.00
2023-01-27T21:56:48.848Z,6.65
2023-01-27T21:59:15.606Z,8.05
2023-01-27T22:01:42.339Z,7.85
2023-01-27T22:04:09.153Z,6.70
2023-01-27T22:06:37.048Z,7.10
2023-01-27T22:09:03.900Z,7.55
2023-01-27T22:11:30.733Z,6.55
2023-01-27T22:13:57.597Z,7.10
2023-01-27T22:16:25.979Z,7.50
2023-01-27T22:18:52.889Z,7.20
2023-01-27T22:21:19.657Z,7.65
2023-01-27T22:23:46.640Z,6.60
2023-01-27T22:26:13.398Z,7.35
2023-01-27T22:28:40.308Z,6.82
2023-01-27T22:31:07.211Z,7.95
2023-01-27T22:33:35.028Z,7.63
2023-01-27T22:36:03.864Z,7.85
2023-01-27T22:38:30.623Z,8.23
2023-01-27T22:40:58.533Z,8.77
2023-01-27T22:43:25.446Z,9.55
2023-01-27T22:45:52.404Z,8.68
2023-01-27T22:48:19.211Z,9.40
2023-01-27T22:50:45.970Z,8.23
2023-01-27T22:53:12.778Z,8.65
2023-01-27T22:55:39.509Z,9.90
2023-01-27T22:58:06.460Z,8.30
2023-01-27T23:00:33.513Z,10.18
2023-01-27T23:03:01.328Z,8.23
2023-01-27T23:05:28.190Z,8.40
2023-01-27T23:07:54.951Z,8.23
2023-01-27T23:10:21.701Z,7.88
2023-01-27T23:12:48.436Z,7.68
2023-01-27T23:15:15.586Z,9.07
2023-01-27T23:17:42.561Z,7.83
2023-01-27T23:20:10.182Z,7.80
2023-01-27T23:22:36.931Z,7.93
2023-01-27T23:25:03.963Z,9.00
2023-01-27T23:27:30.738Z,7.82
2023-01-27T23:29:57.445Z,8.20
2023-01-27T23:32:24.177Z,7.95
2023-01-27T23:34:51.051Z,7.75
2023-01-27T23:37:17.846Z,7.55
2023-01-27T23:39:48.606Z,8.77
2023-01-27T23:42:17.252Z,9.65
2023-01-27T23:44:44.078Z,8.10
2023-01-27T23:47:12.139Z,8.45
2023-01-27T23:49:39.003Z,8.35
2023-01-27T23:52:06.035Z,8.88
2023-01-27T23:54:33.113Z,9.55
2023-01-27T23:56:59.996Z,9.15
2023-01-27T23:59:26.785Z,7.50
